Time;durP1;ratioP1;P1;durP2;ratioP2;P2;SDS_P1;SDS_P2;PMS_P1;PMS_P2;Temp;Humidity;BMP_temperature;BMP_pressure;BME280_temperature;BME280_humidity;BME280_pressure;Samples;Min_cycle;Max_cycle;Signal;HPM_P1;HPM_P2
2022/01/12 00:02:02;;;;;;;55.90;29.83;;;2.90;99.90;;;;;;5062279;28;20036;-51
2022/01/12 00:04:27;;;;;;;57.80;30.65;;;3.00;99.90;;;;;;5062356;28;20044;-51
2022/01/12 00:06:53;;;;;;;54.50;29.65;;;3.00;99.90;;;;;;5068123;28;20044;-49
2022/01/12 00:09:18;;;;;;;64.72;30.52;;;3.00;99.90;;;;;;5054913;28;20052;-49
2022/01/12 00:11:44;;;;;;;65.60;32.78;;;3.00;99.90;;;;;;5059575;28;20040;-53
2022/01/12 00:14:09;;;;;;;61.70;32.22;;;3.00;99.90;;;;;;5057546;28;20044;-50
2022/01/12 00:16:35;;;;;;;61.67;30.40;;;3.00;99.90;;;;;;5060471;28;20569;-49
2022/01/12 00:19:01;;;;;;;64.97;33.50;;;3.00;99.90;;;;;;5061487;28;20045;-47
2022/01/12 00:21:27;;;;;;;65.80;32.47;;;3.00;99.90;;;;;;5061333;28;20044;-51
2022/01/12 00:23:53;;;;;;;61.90;32.42;;;3.00;99.90;;;;;;5069135;28;20060;-50
2022/01/12 00:26:39;;;;;;;66.20;31.70;;;3.00;99.90;;;;;;5062812;28;20044;-52
2022/01/12 00:34:33;;;;;;;63.28;32.75;;;3.10;99.90;;;;;;5065003;28;20064;-51
2022/01/12 00:36:59;;;;;;;69.65;33.47;;;3.10;99.90;;;;;;5058772;28;20041;-48
2022/01/12 00:39:24;;;;;;;60.40;32.35;;;3.10;99.90;;;;;;5063141;28;20087;-49
2022/01/12 00:41:50;;;;;;;56.38;30.23;;;3.10;99.90;;;;;;5060959;28;20080;-53
2022/01/12 00:44:31;;;;;;;62.90;31.17;;;3.10;99.90;;;;;;5063631;28;20062;-53
2022/01/12 00:46:56;;;;;;;55.85;30.27;;;3.10;99.90;;;;;;5069849;28;20102;-49
2022/01/12 00:49:22;;;;;;;44.08;29.33;;;3.10;99.90;;;;;;5053068;28;20048;-53
2022/01/12 00:51:50;;;;;;;55.15;29.90;;;3.10;99.90;;;;;;5054637;28;20132;-50
2022/01/12 00:54:17;;;;;;;57.03;30.88;;;3.10;99.90;;;;;;5060478;28;20121;-50
2022/01/12 00:56:42;;;;;;;48.92;28.52;;;3.10;99.90;;;;;;5055125;28;20045;-49
2022/01/12 00:59:08;;;;;;;53.22;29.77;;;3.10;99.90;;;;;;5068589;28;20051;-48
2022/01/12 01:01:33;;;;;;;48.60;29.15;;;3.10;99.90;;;;;;5062713;28;20731;-48
2022/01/12 01:04:01;;;;;;;50.17;28.65;;;;;;;;;;5058640;28;20078;-48
2022/01/12 01:06:27;;;;;;;;;;;3.10;99.90;;;;;;5065451;28;20123;-47
2022/01/12 01:08:52;;;;;;;44.65;27.30;;;3.10;99.90;;;;;;5066728;28;20066;-47
2022/01/12 01:11:19;;;;;;;45.35;28.20;;;3.10;99.90;;;;;;5063982;28;20041;-49
2022/01/12 01:13:56;;;;;;;52.35;28.15;;;3.10;99.90;;;;;;5063973;28;20045;-52
2022/01/12 01:16:29;;;;;;;46.67;27.63;;;3.10;99.90;;;;;;5055784;28;20550;-51
2022/01/12 01:27:08;;;;;;;41.05;26.85;;;3.10;99.90;;;;;;5066069;28;20101;-51
2022/01/12 01:29:33;;;;;;;50.60;28.40;;;3.10;99.90;;;;;;5062171;28;20111;-48
2022/01/12 01:31:59;;;;;;;41.17;26.27;;;3.10;99.90;;;;;;5065180;28;20509;-51
2022/01/12 01:34:26;;;;;;;44.58;27.10;;;3.20;99.90;;;;;;5064912;28;20490;-53
2022/01/12 01:36:54;;;;;;;41.05;25.52;;;3.10;99.90;;;;;;5066528;28;20039;-52
2022/01/12 01:39:22;;;;;;;42.22;27.95;;;3.10;99.90;;;;;;5063965;28;20087;-49
2022/01/12 01:41:54;;;;;;;40.53;24.98;;;3.20;99.90;;;;;;5058989;28;20045;-49
2022/01/12 01:54:58;;;;;;;45.92;27.40;;;3.20;99.90;;;;;;5068326;28;20067;-47
2022/01/12 01:57:24;;;;;;;49.63;28.48;;;3.20;99.90;;;;;;5065151;28;20556;-51
2022/01/12 01:59:51;;;;;;;42.92;27.90;;;3.20;99.90;;;;;;5056821;28;20056;-49
2022/01/12 02:02:16;;;;;;;43.83;28.23;;;3.20;99.90;;;;;;5064977;28;20140;-52
2022/01/12 02:04:42;;;;;;;44.08;28.42;;;3.20;99.90;;;;;;5060008;28;20127;-51
2022/01/12 02:07:08;;;;;;;48.50;28.10;;;3.20;99.90;;;;;;5068002;28;20037;-52
2022/01/12 02:09:34;;;;;;;58.58;29.63;;;3.20;99.90;;;;;;5066259;28;20044;-51
2022/01/12 02:12:00;;;;;;;52.33;29.85;;;3.20;99.90;;;;;;5061357;28;20043;-48
2022/01/12 02:14:26;;;;;;;54.97;30.88;;;3.20;99.90;;;;;;5064765;28;20045;-50
2022/01/12 02:16:57;;;;;;;56.15;30.90;;;3.20;99.90;;;;;;5065985;28;20072;-53
2022/01/12 02:35:55;;;;;;;74.40;32.22;;;3.20;99.90;;;;;;5054787;28;20051;-50
2022/01/12 02:40:53;;;;;;;71.40;33.55;;;3.20;99.90;;;;;;5064597;28;20053;-50
2022/01/12 02:53:52;;;;;;;72.22;34.92;;;3.20;99.90;;;;;;5068316;28;20045;-48
2022/01/12 02:56:24;;;;;;;77.20;34.63;;;3.20;99.90;;;;;;5064077;28;20079;-51
2022/01/12 02:58:51;;;;;;;102.57;38.40;;;3.20;99.90;;;;;;5052043;28;20115;-50
2022/01/12 03:03:50;;;;;;;126.05;41.67;;;3.20;99.90;;;;;;5065547;28;20041;-50
2022/01/12 03:06:23;;;;;;;119.60;38.85;;;3.20;99.90;;;;;;5065368;28;20134;-49
2022/01/12 03:08:51;;;;;;;136.93;40.47;;;3.20;99.90;;;;;;5071955;28;20051;-51
2022/01/12 03:11:19;;;;;;;108.55;40.72;;;3.30;99.90;;;;;;5069361;28;20055;-51
2022/01/12 03:13:45;;;;;;;96.60;39.67;;;3.30;99.90;;;;;;5072595;28;20511;-48
2022/01/12 03:16:16;;;;;;;115.38;41.72;;;3.30;99.90;;;;;;5063311;28;20041;-50
2022/01/12 03:18:46;;;;;;;110.15;40.92;;;3.30;99.90;;;;;;5068176;28;20469;-52
2022/01/12 03:21:13;;;;;;;117.47;41.88;;;;;;;;;;5068778;28;20036;-49
2022/01/12 03:23:39;;;;;;;153.90;43.53;;;3.30;99.90;;;;;;5056093;28;20625;-50
2022/01/12 03:26:06;;;;;;;109.65;41.40;;;3.30;99.90;;;;;;5053940;28;20120;-51
2022/01/12 03:28:32;;;;;;;127.85;43.47;;;3.30;99.90;;;;;;5068602;28;21281;-47
2022/01/12 03:31:06;;;;;;;114.53;42.95;;;3.40;99.90;;;;;;5065875;28;20049;-48
2022/01/12 03:38:44;;;;;;;123.40;41.67;;;3.40;99.90;;;;;;5060831;28;20055;-51
2022/01/12 03:41:10;;;;;;;111.50;41.13;;;3.40;99.90;;;;;;5066643;28;20048;-53
2022/01/12 03:43:35;;;;;;;123.68;42.13;;;3.40;99.90;;;;;;5071791;28;20414;-49
2022/01/12 03:46:01;;;;;;;194.27;47.63;;;3.40;99.90;;;;;;5067433;28;20439;-50
2022/01/12 03:48:26;;;;;;;114.97;42.95;;;3.40;99.90;;;;;;5071954;28;20041;-50
2022/01/12 03:50:54;;;;;;;161.48;45.55;;;3.40;99.90;;;;;;5065992;28;20055;-51
2022/01/12 03:53:20;;;;;;;147.82;45.20;;;3.40;99.90;;;;;;5066095;28;20044;-52
2022/01/12 03:55:45;;;;;;;183.98;45.72;;;3.40;99.90;;;;;;5055812;28;20406;-50
2022/01/12 03:58:11;;;;;;;214.57;48.95;;;3.40;99.90;;;;;;5069521;28;20076;-49
2022/01/12 04:00:37;;;;;;;127.47;44.25;;;3.40;99.90;;;;;;5059159;28;20047;-52
2022/01/12 04:03:05;;;;;;;140.23;44.08;;;3.50;99.90;;;;;;5057717;28;20106;-51
2022/01/12 04:08:19;;;;;;;163.80;44.72;;;3.50;99.90;;;;;;5061383;28;19920;-50
2022/01/12 04:10:46;;;;;;;146.20;44.50;;;3.50;99.90;;;;;;5068102;28;20055;-52
2022/01/12 04:13:11;;;;;;;141.07;44.85;;;3.50;99.90;;;;;;5068313;28;20049;-52
2022/01/12 04:15:37;;;;;;;199.50;47.97;;;3.50;99.90;;;;;;5063337;28;20055;-50
2022/01/12 04:18:03;;;;;;;165.27;47.95;;;3.50;99.90;;;;;;5066005;28;20047;-51
2022/01/12 04:20:28;;;;;;;177.40;48.25;;;3.50;99.90;;;;;;5062360;28;20071;-49
2022/01/12 04:25:38;;;;;;;165.95;47.13;;;3.50;99.90;;;;;;5069723;28;20051;-50
2022/01/12 04:28:04;;;;;;;178.68;49.28;;;3.50;99.90;;;;;;5069968;28;20040;-50
2022/01/12 04:30:30;;;;;;;223.70;51.05;;;3.50;99.90;;;;;;5065062;28;20139;-53
2022/01/12 04:32:55;;;;;;;203.02;50.95;;;3.50;99.90;;;;;;5065498;28;20483;-50
2022/01/12 04:35:24;;;;;;;158.32;48.15;;;3.50;99.90;;;;;;5067485;28;20044;-47
2022/01/12 04:37:51;;;;;;;168.27;47.08;;;3.50;99.90;;;;;;5067331;28;20528;-49
2022/01/12 04:40:17;;;;;;;165.00;48.60;;;3.50;99.90;;;;;;5068659;28;20123;-47
2022/01/12 04:42:42;;;;;;;123.35;42.95;;;3.50;99.90;;;;;;5062559;28;20761;-48
2022/01/12 04:45:32;;;;;;;138.55;45.55;;;3.50;99.90;;;;;;5070016;28;20507;-47
2022/01/12 04:48:07;;;;;;;125.57;46.15;;;3.50;99.90;;;;;;5066470;28;20504;-50
2022/01/12 04:50:37;;;;;;;153.95;45.35;;;3.60;99.90;;;;;;5059911;28;20428;-50
2022/01/12 04:53:04;;;;;;;150.13;47.97;;;3.60;99.90;;;;;;5066931;28;20127;-48
2022/01/12 04:55:29;;;;;;;179.02;49.38;;;3.60;99.90;;;;;;5071002;28;20040;-49
2022/01/12 04:57:55;;;;;;;161.02;46.38;;;3.60;99.90;;;;;;5063284;28;20041;-53
2022/01/12 05:00:22;;;;;;;165.63;47.45;;;3.60;99.90;;;;;;5057552;28;20048;-51
2022/01/12 05:08:23;;;;;;;243.00;49.85;;;3.60;99.90;;;;;;5072510;28;20136;-50
2022/01/12 05:13:36;;;;;;;142.98;46.88;;;3.60;99.90;;;;;;5061702;28;20143;-52
2022/01/12 05:16:02;;;;;;;154.55;48.45;;;3.60;99.90;;;;;;5064578;28;20048;-51
2022/01/12 05:18:29;;;;;;;150.25;46.97;;;3.60;99.90;;;;;;5065494;28;20075;-48
2022/01/12 05:20:54;;;;;;;154.82;47.38;;;3.60;99.90;;;;;;5064698;28;20072;-53
2022/01/12 05:23:20;;;;;;;140.43;47.15;;;3.60;99.90;;;;;;5067404;28;20071;-48
2022/01/12 05:25:46;;;;;;;119.32;44.38;;;3.60;99.90;;;;;;5066044;28;20033;-50
2022/01/12 05:28:12;;;;;;;163.88;47.15;;;3.60;99.90;;;;;;5067339;28;20048;-53
2022/01/12 05:30:38;;;;;;;123.90;44.20;;;3.60;99.90;;;;;;5062123;28;20121;-51
2022/01/12 05:33:04;;;;;;;148.48;45.90;;;3.60;99.90;;;;;;5054491;28;20556;-49
2022/01/12 05:35:32;;;;;;;172.35;46.10;;;3.60;99.90;;;;;;5063735;28;20040;-49
2022/01/12 05:37:59;;;;;;;194.10;48.15;;;3.50;99.90;;;;;;5061437;28;20071;-48
2022/01/12 05:40:25;;;;;;;150.20;45.72;;;3.50;99.90;;;;;;5066001;28;20048;-49
2022/01/12 05:42:52;;;;;;;125.13;43.85;;;3.50;99.90;;;;;;5062424;28;20477;-51
2022/01/12 05:45:19;;;;;;;144.48;45.05;;;3.50;99.90;;;;;;5067583;28;20048;-52
2022/01/12 05:50:15;;;;;;;106.63;40.70;;;3.50;99.90;;;;;;5067317;28;20509;-48
2022/01/12 05:52:41;;;;;;;104.40;41.33;;;3.50;99.90;;;;;;5060388;28;20045;-48
2022/01/12 05:55:08;;;;;;;133.75;43.40;;;3.40;99.90;;;;;;5065237;28;20048;-51
2022/01/12 05:57:34;;;;;;;167.75;45.83;;;3.40;99.90;;;;;;5067938;28;20124;-49
2022/01/12 06:00:02;;;;;;;162.05;44.00;;;3.40;99.90;;;;;;5069252;28;20049;-48
2022/01/12 06:02:28;;;;;;;135.48;44.05;;;3.40;99.90;;;;;;5061184;28;20390;-50
2022/01/12 06:04:54;;;;;;;113.57;41.22;;;3.40;99.90;;;;;;5062592;28;20040;-51
2022/01/12 06:07:19;;;;;;;116.82;41.95;;;3.40;99.90;;;;;;5059776;28;20041;-50
2022/01/12 06:09:45;;;;;;;180.57;46.20;;;3.40;99.90;;;;;;5060117;28;20051;-50
2022/01/12 06:12:11;;;;;;;152.00;44.50;;;3.40;99.90;;;;;;5069459;28;20062;-52
2022/01/12 06:14:37;;;;;;;156.60;44.38;;;3.40;99.90;;;;;;5058634;28;20373;-50
2022/01/12 06:17:03;;;;;;;228.60;48.25;;;3.40;99.90;;;;;;5065691;28;20056;-50
2022/01/12 06:19:28;;;;;;;103.45;42.42;;;3.40;99.90;;;;;;5063660;28;20462;-48
2022/01/12 06:21:54;;;;;;;122.75;43.03;;;3.30;99.90;;;;;;5061299;28;20165;-54
2022/01/12 06:24:19;;;;;;;127.30;43.72;;;3.30;99.90;;;;;;5064936;28;20037;-51
2022/01/12 06:26:46;;;;;;;134.50;43.78;;;3.30;99.90;;;;;;5061836;28;20033;-50
2022/01/12 06:29:25;;;;;;;104.28;40.53;;;3.40;99.90;;;;;;5064027;28;20044;-49
2022/01/12 06:31:55;;;;;;;112.38;41.78;;;3.40;99.90;;;;;;5065715;28;20049;-50
2022/01/12 06:34:21;;;;;;;101.35;42.00;;;3.40;99.90;;;;;;5060257;28;20044;-54
2022/01/12 06:36:47;;;;;;;99.22;39.25;;;3.40;99.90;;;;;;5068045;28;20479;-47
2022/01/12 06:39:17;;;;;;;136.80;42.33;;;3.40;99.90;;;;;;5073113;28;20037;-50
2022/01/12 06:41:43;;;;;;;107.70;41.10;;;3.40;99.90;;;;;;5066723;28;20033;-52
2022/01/12 06:44:13;;;;;;;114.47;41.88;;;3.40;99.90;;;;;;5073667;28;20060;-50
2022/01/12 06:46:39;;;;;;;108.35;40.33;;;3.50;99.90;;;;;;5065544;28;20048;-52
2022/01/12 06:49:05;;;;;;;117.18;41.50;;;3.50;99.90;;;;;;5060417;28;20398;-53
2022/01/12 06:51:30;;;;;;;133.13;42.25;;;3.50;99.90;;;;;;5064409;28;20045;-49
2022/01/12 06:53:56;;;;;;;152.55;45.22;;;3.50;99.90;;;;;;5073518;28;21003;-51
2022/01/12 06:56:21;;;;;;;131.27;42.38;;;3.50;99.90;;;;;;5074615;28;20047;-50
2022/01/12 06:58:48;;;;;;;137.02;42.17;;;3.50;99.90;;;;;;5070477;28;20048;-50
2022/01/12 07:01:14;;;;;;;133.32;43.70;;;3.50;99.90;;;;;;5059864;28;20056;-52
2022/01/12 07:03:40;;;;;;;171.10;45.90;;;3.50;99.90;;;;;;5063617;28;20044;-47
2022/01/12 07:06:05;;;;;;;141.10;42.38;;;3.50;99.90;;;;;;5065560;28;20133;-47
2022/01/12 07:08:36;;;;;;;173.18;44.65;;;3.50;99.90;;;;;;5067562;28;20043;-52
2022/01/12 07:11:02;;;;;;;133.88;42.13;;;3.50;99.90;;;;;;5070470;28;20102;-49
2022/01/12 07:13:28;;;;;;;146.68;43.13;;;3.50;99.90;;;;;;5070553;28;20132;-49
2022/01/12 07:15:53;;;;;;;125.18;43.10;;;3.50;99.90;;;;;;5069356;28;20052;-51
2022/01/12 07:18:21;;;;;;;162.68;42.53;;;3.50;99.90;;;;;;5069864;28;20049;-51
2022/01/12 07:20:47;;;;;;;112.88;41.47;;;3.50;99.90;;;;;;5069993;28;20040;-48
2022/01/12 07:23:13;;;;;;;119.05;40.50;;;3.50;99.90;;;;;;5071755;28;20383;-52
2022/01/12 07:25:39;;;;;;;116.75;38.90;;;3.50;99.90;;;;;;5069688;28;20101;-51
2022/01/12 07:28:05;;;;;;;110.30;40.97;;;3.50;99.90;;;;;;5067374;28;20040;-49
2022/01/12 07:30:30;;;;;;;126.80;39.47;;;3.50;99.90;;;;;;5076115;28;20067;-51
2022/01/12 07:32:56;;;;;;;118.97;39.90;;;3.50;99.90;;;;;;5063933;28;20036;-51
2022/01/12 07:35:21;;;;;;;120.93;40.03;;;3.50;99.90;;;;;;5073701;28;20443;-48
2022/01/12 07:37:47;;;;;;;115.60;38.58;;;3.50;99.90;;;;;;5072379;28;20320;-51
2022/01/12 07:40:14;;;;;;;99.82;39.13;;;3.50;99.90;;;;;;5068573;28;20040;-50
2022/01/12 07:42:40;;;;;;;109.55;37.80;;;3.50;99.90;;;;;;5072890;28;20562;-50
2022/01/12 07:45:05;;;;;;;122.18;40.40;;;3.50;99.90;;;;;;5061923;28;20131;-52
2022/01/12 07:47:32;;;;;;;96.60;36.75;;;3.50;99.90;;;;;;5068890;28;20588;-49
2022/01/12 07:49:59;;;;;;;98.32;37.85;;;3.50;99.90;;;;;;5063894;28;20507;-51
2022/01/12 07:52:26;;;;;;;109.82;37.55;;;3.60;99.90;;;;;;5062642;28;20047;-50
2022/01/12 07:54:51;;;;;;;113.05;39.47;;;3.60;99.90;;;;;;5068887;28;20056;-49
2022/01/12 07:57:17;;;;;;;121.55;39.28;;;3.60;99.90;;;;;;5069046;28;20041;-50
2022/01/12 07:59:44;;;;;;;114.18;37.88;;;3.60;99.90;;;;;;5069617;28;20097;-50
2022/01/12 08:02:11;;;;;;;122.63;38.75;;;3.60;99.90;;;;;;5067802;28;20039;-51
2022/01/12 08:04:37;;;;;;;107.30;38.35;;;3.60;99.90;;;;;;5067395;28;20044;-52
2022/01/12 08:07:03;;;;;;;110.78;37.92;;;3.70;99.90;;;;;;5072029;28;20359;-51
2022/01/12 08:09:30;;;;;;;95.10;35.72;;;3.70;99.90;;;;;;5058263;28;20065;-51
2022/01/12 08:11:56;;;;;;;87.28;34.80;;;3.70;99.90;;;;;;5062765;28;20060;-52
2022/01/12 08:14:21;;;;;;;94.97;33.28;;;3.70;99.90;;;;;;5063881;28;20052;-53
2022/01/12 08:16:47;;;;;;;91.95;31.42;;;3.80;99.90;;;;;;5069924;28;20067;-49
2022/01/12 08:19:17;;;;;;;91.50;32.42;;;3.80;99.90;;;;;;5061671;28;20059;-48
2022/01/12 08:21:42;;;;;;;81.30;30.83;;;3.90;99.90;;;;;;5067569;28;20059;-48
2022/01/12 08:24:09;;;;;;;82.35;30.45;;;3.90;99.90;;;;;;5068429;28;20478;-48
2022/01/12 08:26:37;;;;;;;77.60;29.57;;;4.00;99.90;;;;;;5065597;28;20094;-53
2022/01/12 08:29:03;;;;;;;80.88;30.30;;;4.00;99.90;;;;;;5058517;28;20338;-54
2022/01/12 08:31:29;;;;;;;87.40;30.50;;;4.00;99.90;;;;;;5060129;28;20498;-53
2022/01/12 08:33:54;;;;;;;78.65;30.00;;;4.10;99.90;;;;;;5060674;28;20033;-51
2022/01/12 08:36:20;;;;;;;75.35;29.92;;;4.20;99.90;;;;;;5062039;28;20106;-49
2022/01/12 08:38:46;;;;;;;79.35;31.15;;;4.10;99.90;;;;;;5060113;28;20044;-51
2022/01/12 08:41:11;;;;;;;82.18;30.17;;;4.20;99.90;;;;;;5057070;28;20140;-52
2022/01/12 08:43:37;;;;;;;86.65;31.13;;;4.20;99.90;;;;;;5061804;28;20487;-50
2022/01/12 08:46:02;;;;;;;78.80;30.42;;;4.20;99.90;;;;;;5057548;28;20037;-51
2022/01/12 08:48:28;;;;;;;97.97;30.77;;;4.20;99.90;;;;;;5062684;28;20048;-53
2022/01/12 08:50:54;;;;;;;83.40;31.05;;;4.20;99.90;;;;;;5057747;28;20057;-53
2022/01/12 08:53:20;;;;;;;78.90;31.23;;;4.20;99.90;;;;;;5064663;28;20044;-51
2022/01/12 08:55:45;;;;;;;77.40;31.10;;;4.20;99.90;;;;;;5059259;28;20140;-53
2022/01/12 08:58:11;;;;;;;84.25;31.10;;;4.20;99.90;;;;;;5057155;28;20175;-52
2022/01/12 09:00:37;;;;;;;91.82;32.88;;;4.20;99.90;;;;;;5061008;28;20437;-53
2022/01/12 09:03:02;;;;;;;84.88;31.75;;;4.30;99.90;;;;;;5061428;28;20230;-53
2022/01/12 09:05:29;;;;;;;87.68;31.88;;;4.30;99.90;;;;;;5055248;28;20036;-49
2022/01/12 09:07:55;;;;;;;84.22;30.33;;;4.40;99.90;;;;;;5064326;28;20044;-48
2022/01/12 09:10:22;;;;;;;84.75;30.08;;;4.50;99.90;;;;;;5065067;28;20036;-50
2022/01/12 09:12:48;;;;;;;82.18;28.00;;;4.50;99.90;;;;;;5066699;28;20109;-51
2022/01/12 09:15:15;;;;;;;82.15;28.90;;;4.50;99.90;;;;;;5059863;28;20053;-52
2022/01/12 09:17:42;;;;;;;80.05;27.17;;;4.60;99.90;;;;;;5064450;28;20041;-52
2022/01/12 09:20:09;;;;;;;83.70;27.20;;;4.60;99.90;;;;;;5054996;28;20367;-51
2022/01/12 09:22:37;;;;;;;81.55;28.05;;;4.70;99.90;;;;;;5068917;28;20101;-49
2022/01/12 09:25:05;;;;;;;91.53;28.60;;;4.80;99.90;;;;;;5064538;28;20123;-49
2022/01/12 09:27:31;;;;;;;85.97;27.60;;;4.80;99.90;;;;;;5062401;28;20041;-50
2022/01/12 09:29:56;;;;;;;94.60;28.42;;;4.80;99.90;;;;;;5062700;28;20049;-50
2022/01/12 09:32:22;;;;;;;78.90;27.52;;;4.90;99.90;;;;;;5062394;28;20111;-51
2022/01/12 09:34:47;;;;;;;86.10;26.55;;;4.90;99.90;;;;;;5056080;28;20041;-48
2022/01/12 09:37:13;;;;;;;80.63;26.13;;;4.90;99.90;;;;;;5058246;28;20114;-47
2022/01/12 09:39:39;;;;;;;84.65;24.67;;;4.90;99.90;;;;;;5065773;28;20044;-50
2022/01/12 09:42:05;;;;;;;83.00;23.58;;;4.90;99.90;;;;;;5060733;28;20040;-51
2022/01/12 09:44:33;;;;;;;82.78;24.42;;;5.00;99.90;;;;;;5064292;28;20041;-50
2022/01/12 09:47:00;;;;;;;71.78;23.17;;;5.10;99.90;;;;;;5060534;28;20872;-48
2022/01/12 09:49:26;;;;;;;68.07;22.40;;;5.10;99.90;;;;;;5067567;28;20174;-49
2022/01/12 09:51:52;;;;;;;75.00;24.05;;;5.20;99.90;;;;;;5069766;28;20306;-50
2022/01/12 09:54:19;;;;;;;69.90;21.88;;;5.20;99.90;;;;;;5069197;28;20037;-53
2022/01/12 09:56:45;;;;;;;71.70;22.42;;;5.20;99.90;;;;;;5067038;28;20501;-52
2022/01/12 09:59:10;;;;;;;69.18;22.10;;;5.30;99.90;;;;;;5071769;28;20044;-51
2022/01/12 10:01:39;;;;;;;58.80;19.48;;;5.30;99.90;;;;;;5070844;28;20399;-50
2022/01/12 10:04:20;;;;;;;59.15;19.38;;;5.40;99.90;;;;;;5069110;28;20052;-52
2022/01/12 10:06:51;;;;;;;55.50;18.70;;;5.40;99.90;;;;;;5069784;28;20039;-54
2022/01/12 10:09:22;;;;;;;60.60;19.65;;;5.40;99.90;;;;;;5070388;28;20380;-49
2022/01/12 10:12:04;;;;;;;58.20;18.50;;;5.50;99.90;;;;;;5070016;28;20051;-52
2022/01/12 10:14:49;;;;;;;51.78;18.10;;;5.50;99.90;;;;;;5071119;28;20044;-49
2022/01/12 10:17:16;;;;;;;54.92;18.35;;;5.50;99.90;;;;;;5070417;28;20044;-48
2022/01/12 10:19:41;;;;;;;46.75;16.52;;;5.50;99.90;;;;;;5069666;28;20463;-49
2022/01/12 10:22:14;;;;;;;45.90;16.05;;;5.50;99.90;;;;;;5063896;28;20118;-52
2022/01/12 10:24:43;;;;;;;38.30;13.77;;;5.50;99.90;;;;;;5068640;28;20082;-54
2022/01/12 10:27:16;;;;;;;34.72;12.73;;;5.50;99.90;;;;;;5069090;28;20107;-51
2022/01/12 10:29:42;;;;;;;45.78;13.73;;;5.50;99.90;;;;;;5070928;28;20144;-52
2022/01/12 10:32:10;;;;;;;42.70;12.70;;;5.50;99.90;;;;;;5066111;28;20505;-51
2022/01/12 10:34:44;;;;;;;36.50;12.50;;;5.50;99.90;;;;;;5070583;28;20360;-52
2022/01/12 10:37:13;;;;;;;35.78;12.00;;;5.60;99.90;;;;;;5068003;28;20351;-52
2022/01/12 10:39:44;;;;;;;36.63;11.32;;;5.60;99.90;;;;;;5070266;28;20120;-48
2022/01/12 10:42:13;;;;;;;33.03;11.77;;;5.70;99.90;;;;;;5059714;28;20045;-47
2022/01/12 10:44:43;;;;;;;35.40;10.25;;;5.80;99.90;;;;;;5070966;28;20057;-48
2022/01/12 10:47:14;;;;;;;34.22;10.15;;;5.80;99.90;;;;;;5064151;28;20052;-47
2022/01/12 10:49:44;;;;;;;35.85;10.43;;;5.80;99.90;;;;;;5051753;28;20516;-48
2022/01/12 10:52:12;;;;;;;34.70;9.77;;;5.80;99.90;;;;;;5053303;28;20053;-51
2022/01/12 10:54:43;;;;;;;33.58;10.18;;;5.80;99.90;;;;;;5071018;28;20101;-52
2022/01/12 10:57:20;;;;;;;36.03;11.02;;;5.80;99.90;;;;;;5070416;28;20036;-49
2022/01/12 11:00:07;;;;;;;32.60;9.85;;;5.90;99.90;;;;;;5071190;28;20053;-50
2022/01/12 11:02:34;;;;;;;34.28;9.45;;;6.00;99.90;;;;;;5068371;28;20076;-53
2022/01/12 11:05:00;;;;;;;29.13;10.33;;;6.10;99.90;;;;;;5071099;28;20398;-49
2022/01/12 11:07:29;;;;;;;37.33;10.70;;;6.20;99.90;;;;;;5071075;28;20064;-50
2022/01/12 11:09:59;;;;;;;27.52;9.70;;;6.20;99.90;;;;;;5070769;28;20115;-50
2022/01/12 11:12:25;;;;;;;32.20;9.15;;;6.10;99.90;;;;;;5053973;28;20123;-49
2022/01/12 11:14:51;;;;;;;30.17;9.82;;;6.10;99.90;;;;;;5050236;28;20103;-51
2022/01/12 11:17:17;;;;;;;38.25;10.57;;;6.20;99.90;;;;;;5068751;28;20060;-53
2022/01/12 11:20:11;;;;;;;26.65;9.27;;;6.10;99.90;;;;;;5071688;28;20381;-51
2022/01/12 11:22:56;;;;;;;32.15;10.65;;;6.10;99.90;;;;;;5065101;28;20136;-49
2022/01/12 11:25:30;;;;;;;29.70;10.48;;;6.10;99.90;;;;;;5073397;28;20132;-49
2022/01/12 11:28:03;;;;;;;26.65;9.73;;;6.10;99.90;;;;;;5072332;28;20052;-50
2022/01/12 11:30:33;;;;;;;29.48;9.80;;;6.10;99.90;;;;;;5065887;28;20047;-52
2022/01/12 11:33:01;;;;;;;33.80;10.43;;;6.10;99.90;;;;;;5070977;28;20045;-48
2022/01/12 11:35:29;;;;;;;20.05;8.20;;;6.10;99.90;;;;;;5072943;28;20052;-50
2022/01/12 11:37:59;;;;;;;28.52;8.18;;;6.10;99.90;;;;;;5073381;28;20079;-53
2022/01/12 11:40:36;;;;;;;28.65;8.65;;;6.00;99.90;;;;;;5073361;28;20044;-50
2022/01/12 11:43:03;;;;;;;26.97;9.07;;;6.10;99.90;;;;;;5073594;28;20044;-50
2022/01/12 11:45:29;;;;;;;27.63;8.65;;;6.10;99.90;;;;;;5073260;28;20678;-48
2022/01/12 11:47:54;;;;;;;27.45;8.90;;;6.10;99.90;;;;;;5071570;28;20070;-50
2022/01/12 11:50:20;;;;;;;27.33;8.07;;;6.10;99.90;;;;;;5072467;28;20101;-51
2022/01/12 11:52:46;;;;;;;30.80;8.05;;;6.10;99.90;;;;;;5073104;28;20052;-52
2022/01/12 11:55:14;;;;;;;33.35;8.43;;;6.20;99.90;;;;;;5069733;28;20069;-51
2022/01/12 11:57:45;;;;;;;28.20;8.70;;;6.30;99.90;;;;;;5072491;28;20044;-47
2022/01/12 12:00:13;;;;;;;35.38;9.27;;;6.40;99.90;;;;;;5070334;28;20118;-47
2022/01/12 12:02:45;;;;;;;28.58;8.32;;;6.50;99.90;;;;;;5072456;28;20186;-47
2022/01/12 12:05:16;;;;;;;29.95;9.23;;;6.50;99.90;;;;;;5073746;28;20071;-50
2022/01/12 12:07:48;;;;;;;29.33;8.60;;;6.60;99.90;;;;;;5071443;28;20041;-50
2022/01/12 12:10:17;;;;;;;25.63;8.63;;;6.70;99.90;;;;;;5071989;28;20093;-48
2022/01/12 12:12:43;;;;;;;27.20;8.70;;;6.80;99.90;;;;;;5073969;28;20041;-52
2022/01/12 12:15:10;;;;;;;29.88;9.40;;;6.80;99.90;;;;;;5073428;28;20124;-49
2022/01/12 12:17:38;;;;;;;36.40;9.10;;;6.70;99.90;;;;;;5071641;28;20405;-49
2022/01/12 12:20:05;;;;;;;;;;;6.70;99.90;;;;;;5072680;28;20044;-51
2022/01/12 12:22:33;;;;;;;27.85;8.75;;;6.70;99.90;;;;;;5071365;28;19920;-52
2022/01/12 12:25:03;;;;;;;;;;;6.60;99.90;;;;;;5068873;28;20131;-47
2022/01/12 12:27:30;;;;;;;30.35;9.20;;;6.50;99.90;;;;;;5070702;28;19925;-49
2022/01/12 12:29:57;;;;;;;37.90;9.38;;;6.50;99.90;;;;;;5071619;28;20044;-49
2022/01/12 12:32:42;;;;;;;33.10;10.27;;;6.40;99.90;;;;;;5070985;28;20532;-51
2022/01/12 12:35:12;;;;;;;31.20;9.70;;;6.30;99.90;;;;;;5071181;28;20402;-53
2022/01/12 12:37:39;;;;;;;24.98;8.63;;;6.30;99.90;;;;;;5068499;28;20044;-53
2022/01/12 12:40:17;;;;;;;32.53;10.25;;;6.30;99.90;;;;;;5073196;28;20040;-52
2022/01/12 12:42:44;;;;;;;29.80;10.00;;;6.30;99.90;;;;;;5071781;28;20049;-52
2022/01/12 12:45:10;;;;;;;30.05;9.50;;;6.40;99.90;;;;;;5073088;28;20071;-50
2022/01/12 12:47:36;;;;;;;30.40;10.15;;;6.40;99.90;;;;;;5063565;28;20080;-49
2022/01/12 12:50:08;;;;;;;28.85;9.88;;;6.50;99.90;;;;;;5052908;28;20515;-53
2022/01/12 12:52:37;;;;;;;30.65;10.18;;;6.50;99.90;;;;;;5061919;28;20045;-51
2022/01/12 12:55:10;;;;;;;31.90;9.52;;;6.50;99.90;;;;;;5063265;28;20036;-50
2022/01/12 12:57:45;;;;;;;26.42;9.38;;;6.50;99.90;;;;;;5072480;28;20072;-50
2022/01/12 13:00:13;;;;;;;27.80;11.00;;;6.60;99.90;;;;;;5073027;28;20058;-49
2022/01/12 13:02:42;;;;;;;;;;;6.60;99.90;;;;;;5073237;28;20390;-52
2022/01/12 13:05:12;;;;;;;28.20;10.40;;;6.60;99.90;;;;;;5072551;28;20342;-51
2022/01/12 13:07:40;;;;;;;36.67;11.68;;;6.70;99.90;;;;;;5061786;28;20146;-50
2022/01/12 13:10:15;;;;;;;28.88;10.77;;;6.70;99.90;;;;;;5071877;28;20051;-49
2022/01/12 13:13:06;;;;;;;29.70;11.00;;;6.70;99.90;;;;;;5071521;28;20170;-47
2022/01/12 13:15:33;;;;;;;27.13;11.55;;;6.60;99.90;;;;;;5073095;28;20116;-48
2022/01/12 13:18:07;;;;;;;36.40;11.88;;;6.60;99.90;;;;;;5071500;28;20120;-48
2022/01/12 13:23:21;;;;;;;32.33;10.95;;;6.50;99.90;;;;;;5061986;28;20060;-52
2022/01/12 13:25:52;;;;;;;25.75;10.90;;;6.50;99.90;;;;;;5071537;28;20044;-51
2022/01/12 13:28:19;;;;;;;25.25;11.00;;;6.50;99.90;;;;;;5069007;28;20056;-53
2022/01/12 13:31:03;;;;;;;29.45;10.60;;;6.40;99.90;;;;;;5068064;28;20052;-50
2022/01/12 13:33:33;;;;;;;29.80;11.48;;;6.40;99.90;;;;;;5070585;28;20043;-52
2022/01/12 13:36:11;;;;;;;29.88;11.02;;;6.40;99.90;;;;;;5070049;28;20040;-53
2022/01/12 13:38:37;;;;;;;29.05;11.65;;;6.40;99.90;;;;;;5070120;28;20040;-51
2022/01/12 13:41:12;;;;;;;27.52;10.35;;;6.40;99.90;;;;;;5068430;28;20049;-51
2022/01/12 13:43:39;;;;;;;25.13;11.02;;;6.40;99.90;;;;;;5070229;28;20048;-50
2022/01/12 13:46:15;;;;;;;37.20;10.90;;;6.40;99.90;;;;;;5066304;28;20119;-52
2022/01/12 13:49:06;;;;;;;33.75;11.68;;;6.40;99.90;;;;;;5072034;28;20082;-52
2022/01/12 13:51:37;;;;;;;30.38;11.38;;;6.30;99.90;;;;;;5070842;28;20051;-50
2022/01/12 13:54:06;;;;;;;32.60;11.52;;;6.30;99.90;;;;;;5071206;28;20478;-53
2022/01/12 13:56:40;;;;;;;34.38;12.93;;;6.30;99.90;;;;;;5070407;28;20406;-48
2022/01/12 13:59:06;;;;;;;26.95;11.63;;;6.20;99.90;;;;;;5070416;28;20158;-51
2022/01/12 14:01:33;;;;;;;31.40;11.77;;;6.20;99.90;;;;;;5069803;28;20044;-50